sensor_id;sensor_type;location;lat;lon;timestamp;P1;durP1;ratioP1;P2;durP2;ratioP2
59756;SDS011;45631;51.962;5.974;2022-12-10T00:01:41;50.55;;;22.95;;
59756;SDS011;45631;51.962;5.974;2022-12-10T00:04:12;52.00;;;23.70;;
59756;SDS011;45631;51.962;5.974;2022-12-10T00:06:41;47.22;;;22.60;;
59756;SDS011;45631;51.962;5.974;2022-12-10T00:09:10;50.97;;;22.58;;
59756;SDS011;45631;51.962;5.974;2022-12-10T00:11:40;52.17;;;21.65;;
59756;SDS011;45631;51.962;5.974;2022-12-10T00:14:09;44.53;;;21.77;;
59756;SDS011;45631;51.962;5.974;2022-12-10T00:16:39;50.88;;;22.98;;
59756;SDS011;45631;51.962;5.974;2022-12-10T00:19:08;52.17;;;23.08;;
59756;SDS011;45631;51.962;5.974;2022-12-10T00:21:38;49.60;;;22.40;;
59756;SDS011;45631;51.962;5.974;2022-12-10T00:24:06;49.80;;;22.70;;
59756;SDS011;45631;51.962;5.974;2022-12-10T00:26:35;47.33;;;22.13;;
59756;SDS011;45631;51.962;5.974;2022-12-10T00:29:06;55.10;;;23.77;;
59756;SDS011;45631;51.962;5.974;2022-12-10T00:31:36;52.00;;;22.52;;
59756;SDS011;45631;51.962;5.974;2022-12-10T00:34:05;49.45;;;21.75;;
59756;SDS011;45631;51.962;5.974;2022-12-10T00:36:38;52.50;;;21.05;;
59756;SDS011;45631;51.962;5.974;2022-12-10T00:39:09;53.60;;;21.95;;
59756;SDS011;45631;51.962;5.974;2022-12-10T00:41:38;46.53;;;21.88;;
59756;SDS011;45631;51.962;5.974;2022-12-10T00:44:07;49.20;;;20.92;;
59756;SDS011;45631;51.962;5.974;2022-12-10T00:46:35;48.88;;;21.30;;
59756;SDS011;45631;51.962;5.974;2022-12-10T00:49:03;54.20;;;20.80;;
59756;SDS011;45631;51.962;5.974;2022-12-10T00:51:32;45.67;;;21.38;;
59756;SDS011;45631;51.962;5.974;2022-12-10T00:54:01;45.72;;;21.60;;
59756;SDS011;45631;51.962;5.974;2022-12-10T00:56:30;51.78;;;24.00;;
59756;SDS011;45631;51.962;5.974;2022-12-10T00:59:00;48.78;;;21.33;;
59756;SDS011;45631;51.962;5.974;2022-12-10T01:01:29;47.05;;;21.63;;
59756;SDS011;45631;51.962;5.974;2022-12-10T01:03:59;50.67;;;21.10;;
59756;SDS011;45631;51.962;5.974;2022-12-10T01:06:30;46.85;;;21.85;;
59756;SDS011;45631;51.962;5.974;2022-12-10T01:09:02;49.90;;;21.13;;
59756;SDS011;45631;51.962;5.974;2022-12-10T01:11:32;49.70;;;21.83;;
59756;SDS011;45631;51.962;5.974;2022-12-10T01:14:03;50.08;;;22.40;;
59756;SDS011;45631;51.962;5.974;2022-12-10T01:16:32;48.25;;;21.38;;
59756;SDS011;45631;51.962;5.974;2022-12-10T01:19:01;52.13;;;23.80;;
59756;SDS011;45631;51.962;5.974;2022-12-10T01:21:29;48.20;;;22.02;;
59756;SDS011;45631;51.962;5.974;2022-12-10T01:24:02;47.38;;;22.30;;
59756;SDS011;45631;51.962;5.974;2022-12-10T01:26:31;46.08;;;20.13;;
59756;SDS011;45631;51.962;5.974;2022-12-10T01:29:01;48.55;;;22.60;;
59756;SDS011;45631;51.962;5.974;2022-12-10T01:31:32;49.53;;;20.98;;
59756;SDS011;45631;51.962;5.974;2022-12-10T01:34:02;46.50;;;21.65;;
59756;SDS011;45631;51.962;5.974;2022-12-10T01:36:32;45.03;;;19.75;;
59756;SDS011;45631;51.962;5.974;2022-12-10T01:39:05;48.65;;;21.23;;
59756;SDS011;45631;51.962;5.974;2022-12-10T01:41:35;45.45;;;19.70;;
59756;SDS011;45631;51.962;5.974;2022-12-10T01:44:53;47.88;;;20.92;;
59756;SDS011;45631;51.962;5.974;2022-12-10T01:47:11;46.00;;;21.02;;
59756;SDS011;45631;51.962;5.974;2022-12-10T01:49:42;47.58;;;21.80;;
59756;SDS011;45631;51.962;5.974;2022-12-10T01:52:10;47.83;;;20.85;;
59756;SDS011;45631;51.962;5.974;2022-12-10T01:54:41;48.25;;;20.42;;
59756;SDS011;45631;51.962;5.974;2022-12-10T01:57:13;45.17;;;22.17;;
59756;SDS011;45631;51.962;5.974;2022-12-10T01:59:43;44.53;;;20.95;;
59756;SDS011;45631;51.962;5.974;2022-12-10T02:02:17;49.05;;;21.85;;
59756;SDS011;45631;51.962;5.974;2022-12-10T02:04:53;44.33;;;21.35;;
59756;SDS011;45631;51.962;5.974;2022-12-10T02:07:33;47.28;;;21.60;;
59756;SDS011;45631;51.962;5.974;2022-12-10T02:10:14;47.95;;;21.23;;
59756;SDS011;45631;51.962;5.974;2022-12-10T02:12:57;45.38;;;19.75;;
59756;SDS011;45631;51.962;5.974;2022-12-10T02:15:33;49.63;;;21.17;;
59756;SDS011;45631;51.962;5.974;2022-12-10T02:18:07;46.33;;;20.38;;
59756;SDS011;45631;51.962;5.974;2022-12-10T02:20:40;48.63;;;20.45;;
59756;SDS011;45631;51.962;5.974;2022-12-10T02:23:12;49.42;;;21.40;;
59756;SDS011;45631;51.962;5.974;2022-12-10T02:25:48;42.60;;;20.17;;
59756;SDS011;45631;51.962;5.974;2022-12-10T02:28:25;46.47;;;20.13;;
59756;SDS011;45631;51.962;5.974;2022-12-10T02:31:03;45.22;;;20.95;;
59756;SDS011;45631;51.962;5.974;2022-12-10T02:33:33;47.53;;;20.25;;
59756;SDS011;45631;51.962;5.974;2022-12-10T02:36:07;42.30;;;20.05;;
59756;SDS011;45631;51.962;5.974;2022-12-10T02:38:37;49.83;;;21.83;;
59756;SDS011;45631;51.962;5.974;2022-12-10T02:41:10;45.70;;;19.42;;
59756;SDS011;45631;51.962;5.974;2022-12-10T02:43:43;46.72;;;19.15;;
59756;SDS011;45631;51.962;5.974;2022-12-10T02:46:15;47.75;;;20.80;;
59756;SDS011;45631;51.962;5.974;2022-12-10T02:48:44;45.15;;;20.98;;
59756;SDS011;45631;51.962;5.974;2022-12-10T02:51:14;48.78;;;21.83;;
59756;SDS011;45631;51.962;5.974;2022-12-10T02:53:42;47.70;;;20.08;;
59756;SDS011;45631;51.962;5.974;2022-12-10T02:56:13;48.90;;;20.90;;
59756;SDS011;45631;51.962;5.974;2022-12-10T02:58:50;57.08;;;23.17;;
59756;SDS011;45631;51.962;5.974;2022-12-10T03:01:35;47.00;;;21.90;;
59756;SDS011;45631;51.962;5.974;2022-12-10T03:04:13;50.33;;;20.40;;
59756;SDS011;45631;51.962;5.974;2022-12-10T03:06:46;45.60;;;20.35;;
59756;SDS011;45631;51.962;5.974;2022-12-10T03:09:22;44.33;;;20.17;;
59756;SDS011;45631;51.962;5.974;2022-12-10T03:11:56;47.35;;;22.48;;
59756;SDS011;45631;51.962;5.974;2022-12-10T03:14:29;47.38;;;21.65;;
59756;SDS011;45631;51.962;5.974;2022-12-10T03:17:01;46.85;;;21.50;;
59756;SDS011;45631;51.962;5.974;2022-12-10T03:19:32;49.28;;;20.90;;
59756;SDS011;45631;51.962;5.974;2022-12-10T03:22:04;44.58;;;21.17;;
59756;SDS011;45631;51.962;5.974;2022-12-10T03:24:34;44.17;;;21.42;;
59756;SDS011;45631;51.962;5.974;2022-12-10T03:27:04;44.88;;;20.15;;
59756;SDS011;45631;51.962;5.974;2022-12-10T03:32:09;44.78;;;19.60;;
59756;SDS011;45631;51.962;5.974;2022-12-10T03:34:38;47.05;;;20.83;;
59756;SDS011;45631;51.962;5.974;2022-12-10T03:37:07;48.45;;;20.80;;
59756;SDS011;45631;51.962;5.974;2022-12-10T03:39:35;48.50;;;21.48;;
59756;SDS011;45631;51.962;5.974;2022-12-10T03:42:04;48.58;;;20.52;;
59756;SDS011;45631;51.962;5.974;2022-12-10T03:44:34;44.90;;;19.63;;
59756;SDS011;45631;51.962;5.974;2022-12-10T03:47:03;46.55;;;20.20;;
59756;SDS011;45631;51.962;5.974;2022-12-10T03:49:35;46.22;;;20.90;;
59756;SDS011;45631;51.962;5.974;2022-12-10T03:52:04;45.97;;;21.55;;
59756;SDS011;45631;51.962;5.974;2022-12-10T03:54:32;45.38;;;20.55;;
59756;SDS011;45631;51.962;5.974;2022-12-10T03:57:01;47.15;;;21.83;;
59756;SDS011;45631;51.962;5.974;2022-12-10T03:59:29;51.05;;;22.15;;
59756;SDS011;45631;51.962;5.974;2022-12-10T04:01:57;47.60;;;21.02;;
59756;SDS011;45631;51.962;5.974;2022-12-10T04:04:25;46.97;;;20.65;;
59756;SDS011;45631;51.962;5.974;2022-12-10T04:06:55;48.58;;;21.63;;
59756;SDS011;45631;51.962;5.974;2022-12-10T04:09:23;51.45;;;21.75;;
59756;SDS011;45631;51.962;5.974;2022-12-10T04:11:54;50.83;;;21.33;;
59756;SDS011;45631;51.962;5.974;2022-12-10T04:14:23;52.30;;;23.75;;
59756;SDS011;45631;51.962;5.974;2022-12-10T04:17:09;42.72;;;21.75;;
59756;SDS011;45631;51.962;5.974;2022-12-10T04:19:38;49.10;;;21.45;;
59756;SDS011;45631;51.962;5.974;2022-12-10T04:22:07;49.80;;;21.17;;
59756;SDS011;45631;51.962;5.974;2022-12-10T04:24:53;46.35;;;21.27;;
59756;SDS011;45631;51.962;5.974;2022-12-10T04:27:39;45.67;;;21.80;;
59756;SDS011;45631;51.962;5.974;2022-12-10T04:30:09;46.38;;;20.33;;
59756;SDS011;45631;51.962;5.974;2022-12-10T04:32:39;49.42;;;20.50;;
59756;SDS011;45631;51.962;5.974;2022-12-10T04:35:08;47.03;;;22.13;;
59756;SDS011;45631;51.962;5.974;2022-12-10T04:37:37;55.00;;;22.67;;
59756;SDS011;45631;51.962;5.974;2022-12-10T04:40:06;48.05;;;21.92;;
59756;SDS011;45631;51.962;5.974;2022-12-10T04:42:35;46.60;;;21.90;;
59756;SDS011;45631;51.962;5.974;2022-12-10T04:45:04;47.60;;;22.23;;
59756;SDS011;45631;51.962;5.974;2022-12-10T04:47:34;48.30;;;21.73;;
59756;SDS011;45631;51.962;5.974;2022-12-10T04:50:02;48.97;;;22.35;;
59756;SDS011;45631;51.962;5.974;2022-12-10T04:52:31;49.65;;;22.77;;
59756;SDS011;45631;51.962;5.974;2022-12-10T04:55:00;54.55;;;22.38;;
59756;SDS011;45631;51.962;5.974;2022-12-10T04:57:28;48.65;;;23.38;;
59756;SDS011;45631;51.962;5.974;2022-12-10T04:59:56;46.00;;;22.02;;
59756;SDS011;45631;51.962;5.974;2022-12-10T05:02:24;54.15;;;24.42;;
59756;SDS011;45631;51.962;5.974;2022-12-10T05:04:53;63.33;;;25.92;;
59756;SDS011;45631;51.962;5.974;2022-12-10T05:07:21;62.85;;;26.25;;
59756;SDS011;45631;51.962;5.974;2022-12-10T05:09:49;57.95;;;24.42;;
59756;SDS011;45631;51.962;5.974;2022-12-10T05:12:18;59.88;;;26.17;;
59756;SDS011;45631;51.962;5.974;2022-12-10T05:14:46;68.18;;;27.67;;
59756;SDS011;45631;51.962;5.974;2022-12-10T05:17:15;67.30;;;26.45;;
59756;SDS011;45631;51.962;5.974;2022-12-10T05:19:43;62.92;;;25.98;;
59756;SDS011;45631;51.962;5.974;2022-12-10T05:22:11;68.80;;;27.08;;
59756;SDS011;45631;51.962;5.974;2022-12-10T05:24:57;71.25;;;29.02;;
59756;SDS011;45631;51.962;5.974;2022-12-10T05:27:26;74.97;;;30.10;;
59756;SDS011;45631;51.962;5.974;2022-12-10T05:29:59;77.53;;;29.80;;
59756;SDS011;45631;51.962;5.974;2022-12-10T05:32:27;73.55;;;29.55;;
59756;SDS011;45631;51.962;5.974;2022-12-10T05:34:55;78.32;;;29.77;;
59756;SDS011;45631;51.962;5.974;2022-12-10T05:37:23;79.38;;;29.02;;
59756;SDS011;45631;51.962;5.974;2022-12-10T05:39:51;78.97;;;31.13;;
59756;SDS011;45631;51.962;5.974;2022-12-10T05:42:19;74.38;;;29.63;;
59756;SDS011;45631;51.962;5.974;2022-12-10T05:44:49;80.85;;;32.00;;
59756;SDS011;45631;51.962;5.974;2022-12-10T05:47:17;76.85;;;30.30;;
59756;SDS011;45631;51.962;5.974;2022-12-10T05:49:45;80.90;;;30.67;;
59756;SDS011;45631;51.962;5.974;2022-12-10T05:52:18;78.55;;;31.23;;
59756;SDS011;45631;51.962;5.974;2022-12-10T05:54:46;84.15;;;28.80;;
59756;SDS011;45631;51.962;5.974;2022-12-10T05:57:14;80.85;;;31.23;;
59756;SDS011;45631;51.962;5.974;2022-12-10T05:59:43;82.43;;;30.05;;
59756;SDS011;45631;51.962;5.974;2022-12-10T06:02:12;93.22;;;33.63;;
59756;SDS011;45631;51.962;5.974;2022-12-10T06:04:42;81.43;;;29.48;;
59756;SDS011;45631;51.962;5.974;2022-12-10T06:07:10;86.80;;;33.00;;
59756;SDS011;45631;51.962;5.974;2022-12-10T06:09:38;84.25;;;30.60;;
59756;SDS011;45631;51.962;5.974;2022-12-10T06:12:07;77.50;;;30.50;;
59756;SDS011;45631;51.962;5.974;2022-12-10T06:14:36;72.65;;;29.45;;
59756;SDS011;45631;51.962;5.974;2022-12-10T06:17:04;82.13;;;29.95;;
59756;SDS011;45631;51.962;5.974;2022-12-10T06:19:34;82.82;;;31.40;;
59756;SDS011;45631;51.962;5.974;2022-12-10T06:22:03;79.05;;;30.45;;
59756;SDS011;45631;51.962;5.974;2022-12-10T06:24:31;80.53;;;30.58;;
59756;SDS011;45631;51.962;5.974;2022-12-10T06:26:59;81.13;;;31.30;;
59756;SDS011;45631;51.962;5.974;2022-12-10T06:29:27;76.90;;;30.05;;
59756;SDS011;45631;51.962;5.974;2022-12-10T06:31:56;89.15;;;33.00;;
59756;SDS011;45631;51.962;5.974;2022-12-10T06:34:24;84.60;;;31.45;;
59756;SDS011;45631;51.962;5.974;2022-12-10T06:36:54;86.03;;;31.42;;
59756;SDS011;45631;51.962;5.974;2022-12-10T06:39:22;77.25;;;29.95;;
59756;SDS011;45631;51.962;5.974;2022-12-10T06:41:51;76.05;;;28.17;;
59756;SDS011;45631;51.962;5.974;2022-12-10T06:44:24;89.22;;;32.53;;
59756;SDS011;45631;51.962;5.974;2022-12-10T06:46:53;84.40;;;30.88;;
59756;SDS011;45631;51.962;5.974;2022-12-10T06:49:21;82.25;;;30.75;;
59756;SDS011;45631;51.962;5.974;2022-12-10T06:51:49;85.28;;;31.20;;
59756;SDS011;45631;51.962;5.974;2022-12-10T06:54:18;80.07;;;31.98;;
59756;SDS011;45631;51.962;5.974;2022-12-10T06:56:47;78.03;;;30.70;;
59756;SDS011;45631;51.962;5.974;2022-12-10T06:59:15;76.00;;;29.00;;
59756;SDS011;45631;51.962;5.974;2022-12-10T07:01:43;75.15;;;28.55;;
59756;SDS011;45631;51.962;5.974;2022-12-10T07:04:11;79.10;;;28.45;;
59756;SDS011;45631;51.962;5.974;2022-12-10T07:06:40;79.50;;;28.15;;
59756;SDS011;45631;51.962;5.974;2022-12-10T07:09:08;67.40;;;27.50;;
59756;SDS011;45631;51.962;5.974;2022-12-10T07:11:38;75.22;;;27.75;;
59756;SDS011;45631;51.962;5.974;2022-12-10T07:14:06;80.53;;;27.55;;
59756;SDS011;45631;51.962;5.974;2022-12-10T07:16:37;73.82;;;28.50;;
59756;SDS011;45631;51.962;5.974;2022-12-10T07:19:06;75.15;;;28.30;;
59756;SDS011;45631;51.962;5.974;2022-12-10T07:21:36;71.05;;;29.48;;
59756;SDS011;45631;51.962;5.974;2022-12-10T07:24:09;74.77;;;29.20;;
59756;SDS011;45631;51.962;5.974;2022-12-10T07:26:42;70.53;;;29.02;;
59756;SDS011;45631;51.962;5.974;2022-12-10T07:29:12;80.53;;;28.63;;
59756;SDS011;45631;51.962;5.974;2022-12-10T07:31:43;73.03;;;28.23;;
59756;SDS011;45631;51.962;5.974;2022-12-10T07:34:12;71.38;;;27.70;;
59756;SDS011;45631;51.962;5.974;2022-12-10T07:36:41;71.85;;;30.45;;
59756;SDS011;45631;51.962;5.974;2022-12-10T07:39:09;80.22;;;28.40;;
59756;SDS011;45631;51.962;5.974;2022-12-10T07:41:46;70.65;;;29.52;;
59756;SDS011;45631;51.962;5.974;2022-12-10T07:44:16;82.40;;;28.67;;
59756;SDS011;45631;51.962;5.974;2022-12-10T07:46:47;80.57;;;29.40;;
59756;SDS011;45631;51.962;5.974;2022-12-10T07:49:16;83.00;;;29.30;;
59756;SDS011;45631;51.962;5.974;2022-12-10T07:51:45;75.43;;;28.70;;
59756;SDS011;45631;51.962;5.974;2022-12-10T07:54:13;74.07;;;28.38;;
59756;SDS011;45631;51.962;5.974;2022-12-10T07:56:42;76.93;;;30.05;;
59756;SDS011;45631;51.962;5.974;2022-12-10T07:59:11;71.45;;;27.15;;
59756;SDS011;45631;51.962;5.974;2022-12-10T08:01:39;69.88;;;27.80;;
59756;SDS011;45631;51.962;5.974;2022-12-10T08:04:08;69.40;;;26.33;;
59756;SDS011;45631;51.962;5.974;2022-12-10T08:06:36;70.10;;;26.13;;
59756;SDS011;45631;51.962;5.974;2022-12-10T08:09:04;65.72;;;25.05;;
59756;SDS011;45631;51.962;5.974;2022-12-10T08:11:32;68.65;;;26.15;;
59756;SDS011;45631;51.962;5.974;2022-12-10T08:14:00;65.97;;;25.33;;
59756;SDS011;45631;51.962;5.974;2022-12-10T08:16:30;70.57;;;25.90;;
59756;SDS011;45631;51.962;5.974;2022-12-10T08:18:59;69.97;;;25.58;;
59756;SDS011;45631;51.962;5.974;2022-12-10T08:21:29;66.28;;;25.70;;
59756;SDS011;45631;51.962;5.974;2022-12-10T08:23:58;65.38;;;25.67;;
59756;SDS011;45631;51.962;5.974;2022-12-10T08:26:28;66.05;;;26.20;;
59756;SDS011;45631;51.962;5.974;2022-12-10T08:28:58;65.25;;;25.10;;
59756;SDS011;45631;51.962;5.974;2022-12-10T08:31:27;62.30;;;24.77;;
59756;SDS011;45631;51.962;5.974;2022-12-10T08:34:04;66.40;;;26.80;;
59756;SDS011;45631;51.962;5.974;2022-12-10T08:36:38;76.35;;;27.00;;
59756;SDS011;45631;51.962;5.974;2022-12-10T08:39:06;70.78;;;26.70;;
59756;SDS011;45631;51.962;5.974;2022-12-10T08:41:36;70.32;;;27.55;;
59756;SDS011;45631;51.962;5.974;2022-12-10T08:44:04;65.15;;;25.40;;
59756;SDS011;45631;51.962;5.974;2022-12-10T08:46:32;70.35;;;25.52;;
59756;SDS011;45631;51.962;5.974;2022-12-10T08:49:01;75.85;;;28.52;;
59756;SDS011;45631;51.962;5.974;2022-12-10T08:51:30;65.57;;;24.65;;
59756;SDS011;45631;51.962;5.974;2022-12-10T08:54:00;65.75;;;25.33;;
59756;SDS011;45631;51.962;5.974;2022-12-10T08:56:28;63.25;;;23.63;;
59756;SDS011;45631;51.962;5.974;2022-12-10T08:58:57;74.78;;;27.70;;
59756;SDS011;45631;51.962;5.974;2022-12-10T09:01:26;65.00;;;27.17;;
59756;SDS011;45631;51.962;5.974;2022-12-10T09:03:54;72.75;;;28.10;;
59756;SDS011;45631;51.962;5.974;2022-12-10T09:06:22;73.25;;;27.63;;
59756;SDS011;45631;51.962;5.974;2022-12-10T09:08:53;73.30;;;25.80;;
59756;SDS011;45631;51.962;5.974;2022-12-10T09:11:22;64.45;;;25.20;;
59756;SDS011;45631;51.962;5.974;2022-12-10T09:13:52;68.50;;;25.05;;
59756;SDS011;45631;51.962;5.974;2022-12-10T09:16:21;62.83;;;24.02;;
59756;SDS011;45631;51.962;5.974;2022-12-10T09:18:56;64.53;;;24.45;;
59756;SDS011;45631;51.962;5.974;2022-12-10T09:21:24;63.15;;;23.90;;
59756;SDS011;45631;51.962;5.974;2022-12-10T09:23:53;62.15;;;23.02;;
59756;SDS011;45631;51.962;5.974;2022-12-10T09:26:22;60.38;;;23.83;;
59756;SDS011;45631;51.962;5.974;2022-12-10T09:28:50;64.70;;;24.73;;
59756;SDS011;45631;51.962;5.974;2022-12-10T09:31:19;65.07;;;24.35;;
59756;SDS011;45631;51.962;5.974;2022-12-10T09:33:48;62.30;;;24.23;;
59756;SDS011;45631;51.962;5.974;2022-12-10T09:36:18;62.33;;;22.50;;
59756;SDS011;45631;51.962;5.974;2022-12-10T09:38:48;60.40;;;23.33;;
59756;SDS011;45631;51.962;5.974;2022-12-10T09:44:12;60.72;;;22.63;;
59756;SDS011;45631;51.962;5.974;2022-12-10T09:46:50;60.67;;;22.15;;
59756;SDS011;45631;51.962;5.974;2022-12-10T09:49:23;64.63;;;24.13;;
59756;SDS011;45631;51.962;5.974;2022-12-10T09:52:01;65.55;;;24.80;;
59756;SDS011;45631;51.962;5.974;2022-12-10T09:54:33;67.23;;;24.47;;
59756;SDS011;45631;51.962;5.974;2022-12-10T09:57:07;69.07;;;23.10;;
59756;SDS011;45631;51.962;5.974;2022-12-10T09:59:46;64.05;;;22.75;;
59756;SDS011;45631;51.962;5.974;2022-12-10T10:04:48;61.10;;;23.60;;
59756;SDS011;45631;51.962;5.974;2022-12-10T10:07:19;70.70;;;24.48;;
59756;SDS011;45631;51.962;5.974;2022-12-10T10:09:49;69.85;;;25.48;;
59756;SDS011;45631;51.962;5.974;2022-12-10T10:12:22;67.75;;;23.83;;
59756;SDS011;45631;51.962;5.974;2022-12-10T10:14:50;66.68;;;25.02;;
59756;SDS011;45631;51.962;5.974;2022-12-10T10:17:19;67.97;;;24.30;;
59756;SDS011;45631;51.962;5.974;2022-12-10T10:19:58;68.25;;;25.02;;
59756;SDS011;45631;51.962;5.974;2022-12-10T10:22:26;71.97;;;24.63;;
59756;SDS011;45631;51.962;5.974;2022-12-10T10:24:54;67.13;;;24.08;;
59756;SDS011;45631;51.962;5.974;2022-12-10T10:27:24;69.35;;;24.48;;
59756;SDS011;45631;51.962;5.974;2022-12-10T10:30:00;74.40;;;25.63;;
59756;SDS011;45631;51.962;5.974;2022-12-10T10:32:44;69.63;;;24.92;;
59756;SDS011;45631;51.962;5.974;2022-12-10T10:35:20;73.97;;;27.15;;
59756;SDS011;45631;51.962;5.974;2022-12-10T10:37:57;72.05;;;24.05;;
59756;SDS011;45631;51.962;5.974;2022-12-10T10:40:29;74.03;;;25.65;;
59756;SDS011;45631;51.962;5.974;2022-12-10T10:45:39;81.88;;;27.85;;
59756;SDS011;45631;51.962;5.974;2022-12-10T10:48:10;84.10;;;27.25;;
59756;SDS011;45631;51.962;5.974;2022-12-10T10:50:41;80.82;;;26.92;;
59756;SDS011;45631;51.962;5.974;2022-12-10T10:53:21;76.95;;;26.90;;
59756;SDS011;45631;51.962;5.974;2022-12-10T10:58:25;72.95;;;24.10;;
59756;SDS011;45631;51.962;5.974;2022-12-10T11:00:58;82.53;;;26.08;;
59756;SDS011;45631;51.962;5.974;2022-12-10T11:03:29;81.70;;;26.13;;
59756;SDS011;45631;51.962;5.974;2022-12-10T11:05:58;92.80;;;27.80;;
59756;SDS011;45631;51.962;5.974;2022-12-10T11:08:29;82.38;;;28.42;;
59756;SDS011;45631;51.962;5.974;2022-12-10T11:11:01;80.97;;;27.77;;
59756;SDS011;45631;51.962;5.974;2022-12-10T11:13:33;82.45;;;26.27;;
59756;SDS011;45631;51.962;5.974;2022-12-10T11:16:09;83.07;;;27.40;;
59756;SDS011;45631;51.962;5.974;2022-12-10T11:18:40;80.28;;;27.00;;
59756;SDS011;45631;51.962;5.974;2022-12-10T11:21:16;86.70;;;27.73;;
59756;SDS011;45631;51.962;5.974;2022-12-10T11:23:48;79.63;;;26.02;;
59756;SDS011;45631;51.962;5.974;2022-12-10T11:26:21;71.03;;;25.98;;
59756;SDS011;45631;51.962;5.974;2022-12-10T11:29:15;77.57;;;26.27;;
59756;SDS011;45631;51.962;5.974;2022-12-10T11:31:57;77.47;;;26.90;;
59756;SDS011;45631;51.962;5.974;2022-12-10T11:34:43;74.80;;;26.40;;
59756;SDS011;45631;51.962;5.974;2022-12-10T11:37:18;77.43;;;26.98;;
59756;SDS011;45631;51.962;5.974;2022-12-10T11:42:59;75.20;;;26.50;;
59756;SDS011;45631;51.962;5.974;2022-12-10T11:45:52;68.32;;;25.52;;
59756;SDS011;45631;51.962;5.974;2022-12-10T11:48:32;77.38;;;27.05;;
59756;SDS011;45631;51.962;5.974;2022-12-10T11:51:10;73.72;;;26.10;;
59756;SDS011;45631;51.962;5.974;2022-12-10T11:53:51;66.53;;;24.63;;
59756;SDS011;45631;51.962;5.974;2022-12-10T11:56:30;69.60;;;24.40;;
59756;SDS011;45631;51.962;5.974;2022-12-10T11:59:05;67.13;;;24.17;;
59756;SDS011;45631;51.962;5.974;2022-12-10T12:01:50;74.28;;;25.23;;
59756;SDS011;45631;51.962;5.974;2022-12-10T12:04:28;66.03;;;22.52;;
59756;SDS011;45631;51.962;5.974;2022-12-10T12:07:18;68.75;;;23.92;;
59756;SDS011;45631;51.962;5.974;2022-12-10T12:10:08;62.28;;;22.55;;
59756;SDS011;45631;51.962;5.974;2022-12-10T12:12:59;68.65;;;24.92;;
59756;SDS011;45631;51.962;5.974;2022-12-10T12:15:31;70.07;;;23.90;;
59756;SDS011;45631;51.962;5.974;2022-12-10T12:18:06;71.72;;;26.38;;
59756;SDS011;45631;51.962;5.974;2022-12-10T12:20:49;70.30;;;25.23;;
59756;SDS011;45631;51.962;5.974;2022-12-10T12:25:52;65.75;;;21.35;;
59756;SDS011;45631;51.962;5.974;2022-12-10T12:28:26;78.75;;;27.13;;
59756;SDS011;45631;51.962;5.974;2022-12-10T12:30:59;70.55;;;25.75;;
59756;SDS011;45631;51.962;5.974;2022-12-10T12:33:35;65.80;;;22.63;;
59756;SDS011;45631;51.962;5.974;2022-12-10T12:36:11;65.47;;;23.30;;
59756;SDS011;45631;51.962;5.974;2022-12-10T12:38:45;76.43;;;26.50;;
59756;SDS011;45631;51.962;5.974;2022-12-10T12:41:21;69.50;;;25.48;;
59756;SDS011;45631;51.962;5.974;2022-12-10T12:43:58;60.47;;;22.90;;
59756;SDS011;45631;51.962;5.974;2022-12-10T12:46:32;62.33;;;24.10;;
59756;SDS011;45631;51.962;5.974;2022-12-10T12:49:10;66.93;;;24.50;;
59756;SDS011;45631;51.962;5.974;2022-12-10T12:51:45;70.47;;;23.38;;
59756;SDS011;45631;51.962;5.974;2022-12-10T12:54:18;63.15;;;21.95;;
59756;SDS011;45631;51.962;5.974;2022-12-10T12:56:53;68.43;;;24.85;;
59756;SDS011;45631;51.962;5.974;2022-12-10T12:59:31;70.95;;;23.75;;
59756;SDS011;45631;51.962;5.974;2022-12-10T13:02:13;67.47;;;24.23;;
59756;SDS011;45631;51.962;5.974;2022-12-10T13:04:51;69.67;;;24.13;;
59756;SDS011;45631;51.962;5.974;2022-12-10T13:07:33;60.08;;;22.27;;
59756;SDS011;45631;51.962;5.974;2022-12-10T13:10:16;55.63;;;20.50;;
59756;SDS011;45631;51.962;5.974;2022-12-10T13:12:51;58.13;;;20.20;;
59756;SDS011;45631;51.962;5.974;2022-12-10T13:15:35;55.80;;;21.63;;
59756;SDS011;45631;51.962;5.974;2022-12-10T13:18:20;63.30;;;21.33;;
59756;SDS011;45631;51.962;5.974;2022-12-10T13:21:13;60.15;;;21.00;;
59756;SDS011;45631;51.962;5.974;2022-12-10T13:23:48;61.00;;;21.23;;
59756;SDS011;45631;51.962;5.974;2022-12-10T13:26:23;56.22;;;21.50;;
59756;SDS011;45631;51.962;5.974;2022-12-10T13:28:53;53.53;;;21.20;;
59756;SDS011;45631;51.962;5.974;2022-12-10T13:31:32;63.63;;;21.80;;
59756;SDS011;45631;51.962;5.974;2022-12-10T13:34:19;61.40;;;21.25;;
59756;SDS011;45631;51.962;5.974;2022-12-10T13:37:05;60.20;;;19.95;;
59756;SDS011;45631;51.962;5.974;2022-12-10T13:40:00;58.15;;;20.17;;
59756;SDS011;45631;51.962;5.974;2022-12-10T13:42:42;59.60;;;20.58;;
59756;SDS011;45631;51.962;5.974;2022-12-10T13:45:30;64.45;;;22.50;;
59756;SDS011;45631;51.962;5.974;2022-12-10T13:48:17;59.53;;;20.17;;
59756;SDS011;45631;51.962;5.974;2022-12-10T13:51:08;55.28;;;19.40;;
59756;SDS011;45631;51.962;5.974;2022-12-10T13:54:06;57.00;;;20.55;;
59756;SDS011;45631;51.962;5.974;2022-12-10T13:56:53;61.75;;;20.08;;
59756;SDS011;45631;51.962;5.974;2022-12-10T13:59:32;55.35;;;20.02;;
59756;SDS011;45631;51.962;5.974;2022-12-10T14:02:16;48.25;;;17.50;;
59756;SDS011;45631;51.962;5.974;2022-12-10T14:05:01;49.55;;;17.95;;
59756;SDS011;45631;51.962;5.974;2022-12-10T14:07:51;51.50;;;18.73;;
59756;SDS011;45631;51.962;5.974;2022-12-10T14:10:26;51.33;;;19.70;;
59756;SDS011;45631;51.962;5.974;2022-12-10T14:12:58;52.78;;;18.60;;
59756;SDS011;45631;51.962;5.974;2022-12-10T14:15:27;61.58;;;18.20;;
59756;SDS011;45631;51.962;5.974;2022-12-10T14:17:59;55.47;;;19.77;;
59756;SDS011;45631;51.962;5.974;2022-12-10T14:20:29;58.97;;;20.17;;
59756;SDS011;45631;51.962;5.974;2022-12-10T14:23:02;51.97;;;19.85;;
59756;SDS011;45631;51.962;5.974;2022-12-10T14:25:47;52.92;;;18.50;;
59756;SDS011;45631;51.962;5.974;2022-12-10T14:28:16;55.50;;;19.25;;
59756;SDS011;45631;51.962;5.974;2022-12-10T14:30:46;58.33;;;18.98;;
59756;SDS011;45631;51.962;5.974;2022-12-10T14:33:17;53.10;;;18.95;;
59756;SDS011;45631;51.962;5.974;2022-12-10T14:35:50;56.35;;;20.85;;
59756;SDS011;45631;51.962;5.974;2022-12-10T14:38:20;60.10;;;20.85;;
59756;SDS011;45631;51.962;5.974;2022-12-10T14:40:55;56.47;;;21.33;;
59756;SDS011;45631;51.962;5.974;2022-12-10T14:43:27;54.65;;;19.38;;
59756;SDS011;45631;51.962;5.974;2022-12-10T14:46:00;57.10;;;20.05;;
59756;SDS011;45631;51.962;5.974;2022-12-10T14:48:35;50.42;;;19.77;;
59756;SDS011;45631;51.962;5.974;2022-12-10T14:51:10;49.25;;;19.30;;
59756;SDS011;45631;51.962;5.974;2022-12-10T14:53:40;47.78;;;18.90;;
59756;SDS011;45631;51.962;5.974;2022-12-10T14:56:11;53.25;;;19.00;;
59756;SDS011;45631;51.962;5.974;2022-12-10T14:58:44;49.67;;;18.52;;
59756;SDS011;45631;51.962;5.974;2022-12-10T15:01:16;49.95;;;17.42;;
59756;SDS011;45631;51.962;5.974;2022-12-10T15:03:51;54.85;;;20.02;;
59756;SDS011;45631;51.962;5.974;2022-12-10T15:06:20;61.33;;;20.23;;
59756;SDS011;45631;51.962;5.974;2022-12-10T15:08:49;59.92;;;20.45;;
59756;SDS011;45631;51.962;5.974;2022-12-10T15:13:52;57.42;;;19.65;;